NORTHEAST SUFFOLK  -  Special Weather Statement Special Weather Statement        NORTHERN NASSAU  -  Special Weather Statement Special Weather Statement        NORTHWEST SUFFOLK  -  Special Weather Statement Special Weather Statement        SOUTHEAST SUFFOLK  -  Special Weather Statement Special Weather Statement        SOUTHERN NASSAU  -  Special Weather Statement Special Weather Statement        SOUTHWEST SUFFOLK  -  Special Weather Statement Special Weather Statement      

Active alerts

Northern Nassau
  Details for Northern Nassau Special Weather Statement
Southern Nassau
  Details for Southern Nassau Special Weather Statement
Northwest Suffolk
  Details for Northwest Suffolk Special Weather Statement
Southwest Suffolk
  Details for Southwest Suffolk Special Weather Statement
Northeast Suffolk
  Details for Northeast Suffolk Special Weather Statement
Southeast Suffolk
  Details for Southeast Suffolk Special Weather Statement


WXM80 ListenWXM80 Stop

You find our weather info also at:

UK Metoffice

WeatherCloud

Weather Underground

Northeastern Weather Network

AWEKAS

Citizen Weather Observer Program (CWOP)

HAMweather, WeatherForYou, PWS Weather


Weather Underground History page Text

Daily Summary for August 16, 2017 Units:  Both    English   Metric
« Previous Day
Next Day »
Daily Weekly Monthly Yearly Custom
  High: Low: Average:
Temperature: 90.1 °F /  32.3 °C 68.4 °F /  20.2 °C 77 °F /  25 °C
Dew Point: 73.0 °F /  22.8 °C 65.3 °F /  18.5 °C 68.4 °F /  20.2 °C
Humidity: 98 % 48 % 78 %
Wind Speed: 5.3 mph /  8.5 km/h - 0.7 mph /  1.1 km/h
Wind Gust: 7.0 mph /  11.3 km/h - -
Wind:- - WSW
Pressure: 29.97 in /  1014.8 hPa 29.83 in /  1010 hPa -
Precipitation: 0.00 in /  0 mm    
Historical Graphs
 
 
Tabular Data for August 16, 2017
Time Temperature Dew Point Pressure Wind Wind Speed Wind Gust Humidity Rainfall Rate (Hourly)
00:00 69.9 °F /  21.1 °C 68.1 °F /  20.1 °C 29.84 in /  1010.4 hPa SE 0.4 mph /  0.6 km/h 2.3 mph /  3.7 km/h 94 % 0.00 in /  0 mm
00:05 69.9 °F /  21.1 °C 68.1 °F /  20.1 °C 29.85 in /  1010.7 hPa Calm   1.2 mph /  1.9 km/h 94 % 0.00 in /  0 mm
00:10 69.8 °F /  21 °C 68.0 °F /  20 °C 29.85 in /  1010.7 hPa Calm     94 % 0.00 in /  0 mm
00:15 69.7 °F /  20.9 °C 67.9 °F /  19.9 °C 29.85 in /  1010.7 hPa Calm     94 % 0.00 in /  0 mm
00:20 69.6 °F /  20.9 °C 67.8 °F /  19.9 °C 29.84 in /  1010.4 hPa Calm     94 % 0.00 in /  0 mm
00:25 69.5 °F /  20.8 °C 67.7 °F /  19.8 °C 29.84 in /  1010.4 hPa Calm     94 % 0.00 in /  0 mm
00:30 69.4 °F /  20.8 °C 67.6 °F /  19.8 °C 29.84 in /  1010.4 hPa Calm     94 % 0.00 in /  0 mm
00:35 69.3 °F /  20.7 °C 67.5 °F /  19.7 °C 29.84 in /  1010.4 hPa Calm     94 % 0.00 in /  0 mm
00:40 69.2 °F /  20.7 °C 67.4 °F /  19.7 °C 29.84 in /  1010.4 hPa Calm     94 % 0.00 in /  0 mm
00:45 69.2 °F /  20.7 °C 67.4 °F /  19.7 °C 29.84 in /  1010.4 hPa Calm     94 % 0.00 in /  0 mm
00:50 69.1 °F /  20.6 °C 67.3 °F /  19.6 °C 29.84 in /  1010.4 hPa SE 0.1 mph /  0.2 km/h 1.2 mph /  1.9 km/h 94 % 0.00 in /  0 mm
00:55 69.1 °F /  20.6 °C 67.6 °F /  19.8 °C 29.84 in /  1010.4 hPa Calm     95 % 0.00 in /  0 mm
01:00 69.1 °F /  20.6 °C 67.6 °F /  19.8 °C 29.85 in /  1010.7 hPa Calm     95 % 0.00 in /  0 mm
01:05 69.1 °F /  20.6 °C 67.6 °F /  19.8 °C 29.84 in /  1010.4 hPa WSW 0.3 mph /  0.5 km/h 1.2 mph /  1.9 km/h 95 % 0.00 in /  0 mm
01:10 69.1 °F /  20.6 °C 67.6 °F /  19.8 °C 29.84 in /  1010.4 hPa Calm     95 % 0.00 in /  0 mm
01:15 69.2 °F /  20.7 °C 68.0 °F /  20 °C 29.84 in /  1010.4 hPa Calm     96 % 0.00 in /  0 mm
01:20 69.2 °F /  20.7 °C 68.0 °F /  20 °C 29.83 in /  1010 hPa Calm     96 % 0.00 in /  0 mm
01:25 69.1 °F /  20.6 °C 67.9 °F /  19.9 °C 29.83 in /  1010 hPa Calm     96 % 0.00 in /  0 mm
01:30 69.1 °F /  20.6 °C 67.9 °F /  19.9 °C 29.83 in /  1010 hPa Calm     96 % 0.00 in /  0 mm
01:35 69.1 °F /  20.6 °C 67.9 °F /  19.9 °C 29.84 in /  1010.4 hPa Calm   1.2 mph /  1.9 km/h 96 % 0.00 in /  0 mm
01:40 69.1 °F /  20.6 °C 67.9 °F /  19.9 °C 29.84 in /  1010.4 hPa WSW 0.3 mph /  0.5 km/h 2.3 mph /  3.7 km/h 96 % 0.00 in /  0 mm
01:45 69.1 °F /  20.6 °C 67.9 °F /  19.9 °C 29.83 in /  1010 hPa Calm     96 % 0.00 in /  0 mm
01:50 69.1 °F /  20.6 °C 67.9 °F /  19.9 °C 29.83 in /  1010 hPa Calm   1.2 mph /  1.9 km/h 96 % 0.00 in /  0 mm
01:56 69.1 °F /  20.6 °C 67.9 °F /  19.9 °C 29.83 in /  1010 hPa Calm   3.0 mph /  4.8 km/h 96 % 0.00 in /  0 mm
02:01 69.1 °F /  20.6 °C 67.9 °F /  19.9 °C 29.84 in /  1010.4 hPa WSW 0.1 mph /  0.2 km/h 3.5 mph /  5.6 km/h 96 % 0.00 in /  0 mm
02:06 69.2 °F /  20.7 °C 68.0 °F /  20 °C 29.84 in /  1010.4 hPa WSW 1.3 mph /  2.1 km/h 2.3 mph /  3.7 km/h 96 % 0.00 in /  0 mm
02:11 69.2 °F /  20.7 °C 68.0 °F /  20 °C 29.84 in /  1010.4 hPa Calm   3.0 mph /  4.8 km/h 96 % 0.00 in /  0 mm
02:16 69.2 °F /  20.7 °C 68.0 °F /  20 °C 29.84 in /  1010.4 hPa Calm     96 % 0.00 in /  0 mm
02:21 69.2 °F /  20.7 °C 68.0 °F /  20 °C 29.85 in /  1010.7 hPa Calm   1.0 mph /  1.6 km/h 96 % 0.00 in /  0 mm
02:26 69.2 °F /  20.7 °C 68.0 °F /  20 °C 29.84 in /  1010.4 hPa Calm   1.0 mph /  1.6 km/h 96 % 0.00 in /  0 mm
02:31 69.2 °F /  20.7 °C 68.0 °F /  20 °C 29.85 in /  1010.7 hPa Calm   1.0 mph /  1.6 km/h 96 % 0.00 in /  0 mm
02:36 69.2 °F /  20.7 °C 68.0 °F /  20 °C 29.85 in /  1010.7 hPa Calm   1.0 mph /  1.6 km/h 96 % 0.00 in /  0 mm
02:41 69.2 °F /  20.7 °C 68.0 °F /  20 °C 29.85 in /  1010.7 hPa Calm     96 % 0.00 in /  0 mm
02:46 69.2 °F /  20.7 °C 68.0 °F /  20 °C 29.85 in /  1010.7 hPa Calm   2.0 mph /  3.2 km/h 96 % 0.00 in /  0 mm
02:51 69.1 °F /  20.6 °C 67.9 °F /  19.9 °C 29.85 in /  1010.7 hPa Calm   1.0 mph /  1.6 km/h 96 % 0.00 in /  0 mm
02:56 69.1 °F /  20.6 °C 67.9 °F /  19.9 °C 29.85 in /  1010.7 hPa Calm   2.0 mph /  3.2 km/h 96 % 0.00 in /  0 mm
03:01 69.1 °F /  20.6 °C 67.9 °F /  19.9 °C 29.85 in /  1010.7 hPa Calm   1.2 mph /  1.9 km/h 96 % 0.00 in /  0 mm
03:06 69.1 °F /  20.6 °C 67.9 °F /  19.9 °C 29.85 in /  1010.7 hPa West 0.1 mph /  0.2 km/h 3.0 mph /  4.8 km/h 96 % 0.00 in /  0 mm
03:11 69.1 °F /  20.6 °C 67.9 °F /  19.9 °C 29.85 in /  1010.7 hPa Calm   1.2 mph /  1.9 km/h 96 % 0.00 in /  0 mm
03:16 69.2 °F /  20.7 °C 68.3 °F /  20.2 °C 29.85 in /  1010.7 hPa Calm     97 % 0.00 in /  0 mm
03:21 69.2 °F /  20.7 °C 68.3 °F /  20.2 °C 29.85 in /  1010.7 hPa WSW 0.2 mph /  0.3 km/h 1.2 mph /  1.9 km/h 97 % 0.00 in /  0 mm
03:26 69.1 °F /  20.6 °C 68.2 °F /  20.1 °C 29.86 in /  1011.1 hPa Calm     97 % 0.00 in /  0 mm
03:31 69.1 °F /  20.6 °C 68.2 °F /  20.1 °C 29.86 in /  1011.1 hPa Calm     97 % 0.00 in /  0 mm
03:36 69.1 °F /  20.6 °C 68.2 °F /  20.1 °C 29.86 in /  1011.1 hPa Calm     97 % 0.00 in /  0 mm
03:41 69.1 °F /  20.6 °C 68.2 °F /  20.1 °C 29.85 in /  1010.7 hPa Calm     97 % 0.00 in /  0 mm
03:46 69.0 °F /  20.6 °C 67.8 °F /  19.9 °C 29.85 in /  1010.7 hPa Calm     96 % 0.00 in /  0 mm
03:51 69.0 °F /  20.6 °C 67.8 °F /  19.9 °C 29.85 in /  1010.7 hPa Calm     96 % 0.00 in /  0 mm
03:56 68.9 °F /  20.5 °C 67.7 °F /  19.8 °C 29.85 in /  1010.7 hPa Calm     96 % 0.00 in /  0 mm
04:01 68.9 °F /  20.5 °C 67.7 °F /  19.8 °C 29.85 in /  1010.7 hPa Calm     96 % 0.00 in /  0 mm
04:06 68.8 °F /  20.4 °C 67.6 °F /  19.8 °C 29.85 in /  1010.7 hPa Calm     96 % 0.00 in /  0 mm
04:11 68.8 °F /  20.4 °C 67.6 °F /  19.8 °C 29.84 in /  1010.4 hPa Calm     96 % 0.00 in /  0 mm
04:16 68.6 °F /  20.3 °C 67.4 °F /  19.7 °C 29.84 in /  1010.4 hPa Calm     96 % 0.00 in /  0 mm
04:21 68.6 °F /  20.3 °C 67.4 °F /  19.7 °C 29.85 in /  1010.7 hPa Calm     96 % 0.00 in /  0 mm
04:26 68.5 °F /  20.3 °C 67.3 °F /  19.6 °C 29.85 in /  1010.7 hPa Calm     96 % 0.00 in /  0 mm
04:31 68.5 °F /  20.3 °C 67.3 °F /  19.6 °C 29.85 in /  1010.7 hPa Calm     96 % 0.00 in /  0 mm
04:36 68.4 °F /  20.2 °C 67.2 °F /  19.6 °C 29.85 in /  1010.7 hPa Calm     96 % 0.00 in /  0 mm
04:41 68.4 °F /  20.2 °C 67.2 °F /  19.6 °C 29.86 in /  1011.1 hPa Calm     96 % 0.00 in /  0 mm
04:46 68.4 °F /  20.2 °C 67.2 °F /  19.6 °C 29.86 in /  1011.1 hPa Calm     96 % 0.00 in /  0 mm
04:51 68.4 °F /  20.2 °C 67.5 °F /  19.7 °C 29.86 in /  1011.1 hPa Calm     97 % 0.00 in /  0 mm
04:56 68.5 °F /  20.3 °C 67.6 °F /  19.8 °C 29.86 in /  1011.1 hPa Calm     97 % 0.00 in /  0 mm
05:02 68.5 °F /  20.3 °C 67.6 °F /  19.8 °C 29.86 in /  1011.1 hPa Calm   1.2 mph /  1.9 km/h 97 % 0.00 in /  0 mm
05:07 68.6 °F /  20.3 °C 67.7 °F /  19.8 °C 29.86 in /  1011.1 hPa WSW 0.1 mph /  0.2 km/h 1.2 mph /  1.9 km/h 97 % 0.00 in /  0 mm
05:12 68.7 °F /  20.4 °C 67.8 °F /  19.9 °C 29.86 in /  1011.1 hPa Calm     97 % 0.00 in /  0 mm
05:17 68.8 °F /  20.4 °C 67.9 °F /  19.9 °C 29.87 in /  1011.4 hPa Calm     97 % 0.00 in /  0 mm
05:22 68.9 °F /  20.5 °C 68.0 °F /  20 °C 29.87 in /  1011.4 hPa Calm   1.2 mph /  1.9 km/h 97 % 0.00 in /  0 mm
05:27 69.0 °F /  20.6 °C 68.1 °F /  20.1 °C 29.87 in /  1011.4 hPa WSW 0.1 mph /  0.2 km/h 1.2 mph /  1.9 km/h 97 % 0.00 in /  0 mm
05:32 69.2 °F /  20.7 °C 68.3 °F /  20.2 °C 29.87 in /  1011.4 hPa Calm     97 % 0.00 in /  0 mm
05:37 69.4 °F /  20.8 °C 68.5 °F /  20.3 °C 29.87 in /  1011.4 hPa Calm   1.0 mph /  1.6 km/h 97 % 0.00 in /  0 mm
05:42 69.6 °F /  20.9 °C 68.7 °F /  20.4 °C 29.87 in /  1011.4 hPa WSW 0.2 mph /  0.3 km/h 1.2 mph /  1.9 km/h 97 % 0.00 in /  0 mm
05:47 69.7 °F /  20.9 °C 69.1 °F /  20.6 °C 29.88 in /  1011.7 hPa WSW 0.1 mph /  0.2 km/h 1.2 mph /  1.9 km/h 98 % 0.00 in /  0 mm
05:52 69.9 °F /  21.1 °C 69.3 °F /  20.7 °C 29.88 in /  1011.7 hPa WSW 0.4 mph /  0.6 km/h 2.3 mph /  3.7 km/h 98 % 0.00 in /  0 mm
05:57 69.9 °F /  21.1 °C 69.3 °F /  20.7 °C 29.88 in /  1011.7 hPa Calm     98 % 0.00 in /  0 mm
06:02 69.9 °F /  21.1 °C 69.0 °F /  20.6 °C 29.88 in /  1011.7 hPa WSW 0.2 mph /  0.3 km/h 2.3 mph /  3.7 km/h 97 % 0.00 in /  0 mm
06:07 69.9 °F /  21.1 °C 69.0 °F /  20.6 °C 29.88 in /  1011.7 hPa WNW 1.4 mph /  2.3 km/h 4.0 mph /  6.4 km/h 97 % 0.00 in /  0 mm
06:12 70.0 °F /  21.1 °C 69.1 °F /  20.6 °C 29.88 in /  1011.7 hPa WNW 1.9 mph /  3.1 km/h 4.6 mph /  7.4 km/h 97 % 0.00 in /  0 mm
06:17 70.0 °F /  21.1 °C 69.1 °F /  20.6 °C 29.88 in /  1011.7 hPa WNW 1.5 mph /  2.4 km/h 2.0 mph /  3.2 km/h 97 % 0.00 in /  0 mm
06:22 70.0 °F /  21.1 °C 69.1 °F /  20.6 °C 29.88 in /  1011.7 hPa WNW 1.0 mph /  1.6 km/h 3.5 mph /  5.6 km/h 97 % 0.00 in /  0 mm
06:27 70.0 °F /  21.1 °C 69.1 °F /  20.6 °C 29.89 in /  1012.1 hPa Calm   1.2 mph /  1.9 km/h 97 % 0.00 in /  0 mm
06:32 69.9 °F /  21.1 °C 69.0 °F /  20.6 °C 29.89 in /  1012.1 hPa WNW 0.2 mph /  0.3 km/h 3.5 mph /  5.6 km/h 97 % 0.00 in /  0 mm
06:38 69.9 °F /  21.1 °C 69.0 °F /  20.6 °C 29.89 in /  1012.1 hPa WNW 1.0 mph /  1.6 km/h 2.3 mph /  3.7 km/h 97 % 0.00 in /  0 mm
06:43 69.9 °F /  21.1 °C 69.0 °F /  20.6 °C 29.89 in /  1012.1 hPa WNW 0.1 mph /  0.2 km/h 3.5 mph /  5.6 km/h 97 % 0.00 in /  0 mm
06:48 69.9 °F /  21.1 °C 69.0 °F /  20.6 °C 29.89 in /  1012.1 hPa Calm   1.0 mph /  1.6 km/h 97 % 0.00 in /  0 mm
06:53 69.9 °F /  21.1 °C 69.0 °F /  20.6 °C 29.89 in /  1012.1 hPa SW 0.7 mph /  1.1 km/h 2.3 mph /  3.7 km/h 97 % 0.00 in /  0 mm
06:58 69.9 °F /  21.1 °C 69.0 °F /  20.6 °C 29.89 in /  1012.1 hPa Calm   1.0 mph /  1.6 km/h 97 % 0.00 in /  0 mm
07:03 69.9 °F /  21.1 °C 69.0 °F /  20.6 °C 29.89 in /  1012.1 hPa WNW 0.1 mph /  0.2 km/h 1.2 mph /  1.9 km/h 97 % 0.00 in /  0 mm
07:08 70.0 °F /  21.1 °C 69.1 °F /  20.6 °C 29.89 in /  1012.1 hPa WNW 1.1 mph /  1.8 km/h 3.5 mph /  5.6 km/h 97 % 0.00 in /  0 mm
07:13 70.0 °F /  21.1 °C 69.1 °F /  20.6 °C 29.89 in /  1012.1 hPa Calm   1.2 mph /  1.9 km/h 97 % 0.00 in /  0 mm
07:18 70.1 °F /  21.2 °C 69.2 °F /  20.7 °C 29.89 in /  1012.1 hPa WNW 1.2 mph /  1.9 km/h 3.5 mph /  5.6 km/h 97 % 0.00 in /  0 mm
07:23 70.2 °F /  21.2 °C 69.3 °F /  20.7 °C 29.89 in /  1012.1 hPa WNW 0.1 mph /  0.2 km/h 2.3 mph /  3.7 km/h 97 % 0.00 in /  0 mm
07:28 70.3 °F /  21.3 °C 69.4 °F /  20.8 °C 29.89 in /  1012.1 hPa NW 2.4 mph /  3.9 km/h 3.5 mph /  5.6 km/h 97 % 0.00 in /  0 mm
07:33 70.5 °F /  21.4 °C 69.9 °F /  21.1 °C 29.90 in /  1012.4 hPa Calm   3.5 mph /  5.6 km/h 98 % 0.00 in /  0 mm
07:38 70.6 °F /  21.4 °C 70.0 °F /  21.1 °C 29.89 in /  1012.1 hPa NW 0.1 mph /  0.2 km/h 3.5 mph /  5.6 km/h 98 % 0.00 in /  0 mm
07:44 70.7 °F /  21.5 °C 70.1 °F /  21.2 °C 29.89 in /  1012.1 hPa NW 1.6 mph /  2.6 km/h 3.5 mph /  5.6 km/h 98 % 0.00 in /  0 mm
07:49 70.7 °F /  21.5 °C 70.1 °F /  21.2 °C 29.89 in /  1012.1 hPa NW 0.5 mph /  0.8 km/h 3.5 mph /  5.6 km/h 98 % 0.00 in /  0 mm
07:54 70.8 °F /  21.6 °C 70.2 °F /  21.2 °C 29.89 in /  1012.1 hPa WNW 0.2 mph /  0.3 km/h 2.3 mph /  3.7 km/h 98 % 0.00 in /  0 mm
07:59 70.9 °F /  21.6 °C 70.0 °F /  21.1 °C 29.89 in /  1012.1 hPa NW 0.1 mph /  0.2 km/h 1.2 mph /  1.9 km/h 97 % 0.00 in /  0 mm
08:04 70.9 °F /  21.6 °C 70.0 °F /  21.1 °C 29.90 in /  1012.4 hPa NW 1.4 mph /  2.3 km/h 3.5 mph /  5.6 km/h 97 % 0.00 in /  0 mm
08:09 70.9 °F /  21.6 °C 70.0 °F /  21.1 °C 29.90 in /  1012.4 hPa NW 0.1 mph /  0.2 km/h 1.0 mph /  1.6 km/h 97 % 0.00 in /  0 mm
08:14 70.8 °F /  21.6 °C 69.9 °F /  21.1 °C 29.90 in /  1012.4 hPa WNW 1.2 mph /  1.9 km/h 3.5 mph /  5.6 km/h 97 % 0.00 in /  0 mm
08:19 70.8 °F /  21.6 °C 69.9 °F /  21.1 °C 29.90 in /  1012.4 hPa Calm   2.3 mph /  3.7 km/h 97 % 0.00 in /  0 mm
08:24 70.8 °F /  21.6 °C 69.9 °F /  21.1 °C 29.90 in /  1012.4 hPa WNW 2.2 mph /  3.5 km/h 3.5 mph /  5.6 km/h 97 % 0.00 in /  0 mm
08:29 70.7 °F /  21.5 °C 69.8 °F /  21 °C 29.90 in /  1012.4 hPa NNE 0.9 mph /  1.4 km/h 3.0 mph /  4.8 km/h 97 % 0.00 in /  0 mm
08:34 70.8 °F /  21.6 °C 69.9 °F /  21.1 °C 29.90 in /  1012.4 hPa NW 1.5 mph /  2.4 km/h 3.5 mph /  5.6 km/h 97 % 0.00 in /  0 mm
08:39 70.7 °F /  21.5 °C 69.8 °F /  21 °C 29.90 in /  1012.4 hPa North 1.7 mph /  2.7 km/h 3.5 mph /  5.6 km/h 97 % 0.00 in /  0 mm
08:44 70.7 °F /  21.5 °C 69.8 °F /  21 °C 29.90 in /  1012.4 hPa NW 0.5 mph /  0.8 km/h 3.5 mph /  5.6 km/h 97 % 0.00 in /  0 mm
08:49 70.8 °F /  21.6 °C 69.9 °F /  21.1 °C 29.90 in /  1012.4 hPa NNW 2.2 mph /  3.5 km/h 3.5 mph /  5.6 km/h 97 % 0.00 in /  0 mm
08:54 70.8 °F /  21.6 °C 69.9 °F /  21.1 °C 29.90 in /  1012.4 hPa NNW 0.6 mph /  1 km/h 2.3 mph /  3.7 km/h 97 % 0.00 in /  0 mm
09:00 70.9 °F /  21.6 °C 70.0 °F /  21.1 °C 29.90 in /  1012.4 hPa NNW 1.4 mph /  2.3 km/h 3.5 mph /  5.6 km/h 97 % 0.00 in /  0 mm
09:05 71.0 °F /  21.7 °C 70.1 °F /  21.2 °C 29.90 in /  1012.4 hPa Calm   3.5 mph /  5.6 km/h 97 % 0.00 in /  0 mm
09:10 71.2 °F /  21.8 °C 70.3 °F /  21.3 °C 29.90 in /  1012.4 hPa Calm   1.2 mph /  1.9 km/h 97 % 0.00 in /  0 mm
09:15 71.2 °F /  21.8 °C 70.0 °F /  21.1 °C 29.90 in /  1012.4 hPa West 0.4 mph /  0.6 km/h 1.2 mph /  1.9 km/h 96 % 0.00 in /  0 mm
09:20 71.3 °F /  21.8 °C 70.1 °F /  21.2 °C 29.90 in /  1012.4 hPa North 0.7 mph /  1.1 km/h 3.5 mph /  5.6 km/h 96 % 0.00 in /  0 mm
09:25 71.4 °F /  21.9 °C 69.9 °F /  21.1 °C 29.90 in /  1012.4 hPa Calm   2.3 mph /  3.7 km/h 95 % 0.00 in /  0 mm
09:30 71.4 °F /  21.9 °C 69.6 °F /  20.9 °C 29.90 in /  1012.4 hPa North 2.4 mph /  3.9 km/h 4.6 mph /  7.4 km/h 94 % 0.00 in /  0 mm
09:35 71.6 °F /  22 °C 69.8 °F /  21 °C 29.90 in /  1012.4 hPa WNW 2.1 mph /  3.4 km/h 3.5 mph /  5.6 km/h 94 % 0.00 in /  0 mm
09:40 71.8 °F /  22.1 °C 69.7 °F /  20.9 °C 29.90 in /  1012.4 hPa WNW 1.1 mph /  1.8 km/h 3.5 mph /  5.6 km/h 93 % 0.00 in /  0 mm
09:45 72.1 °F /  22.3 °C 70.0 °F /  21.1 °C 29.90 in /  1012.4 hPa NW 0.3 mph /  0.5 km/h 3.0 mph /  4.8 km/h 93 % 0.00 in /  0 mm
09:50 72.4 °F /  22.4 °C 69.9 °F /  21.1 °C 29.90 in /  1012.4 hPa NW 2.0 mph /  3.2 km/h 4.0 mph /  6.4 km/h 92 % 0.00 in /  0 mm
09:55 73.0 °F /  22.8 °C 70.5 °F /  21.4 °C 29.90 in /  1012.4 hPa NNW 0.4 mph /  0.6 km/h 2.3 mph /  3.7 km/h 92 % 0.00 in /  0 mm
10:00 73.9 °F /  23.3 °C 71.1 °F /  21.7 °C 29.90 in /  1012.4 hPa NW 0.5 mph /  0.8 km/h 1.2 mph /  1.9 km/h 91 % 0.00 in /  0 mm
10:05 74.8 °F /  23.8 °C 71.7 °F /  22.1 °C 29.90 in /  1012.4 hPa West 0.3 mph /  0.5 km/h 3.5 mph /  5.6 km/h 90 % 0.00 in /  0 mm
10:10 75.5 °F /  24.2 °C 71.7 °F /  22.1 °C 29.90 in /  1012.4 hPa WSW 0.9 mph /  1.4 km/h 3.5 mph /  5.6 km/h 88 % 0.00 in /  0 mm
10:15 76.1 °F /  24.5 °C 71.6 °F /  22 °C 29.90 in /  1012.4 hPa North 0.1 mph /  0.2 km/h 1.2 mph /  1.9 km/h 86 % 0.00 in /  0 mm
10:20 76.9 °F /  24.9 °C 71.0 °F /  21.7 °C 29.90 in /  1012.4 hPa WNW 1.8 mph /  2.9 km/h 3.5 mph /  5.6 km/h 82 % 0.00 in /  0 mm
10:25 77.5 °F /  25.3 °C 70.8 °F /  21.6 °C 29.90 in /  1012.4 hPa WNW 0.5 mph /  0.8 km/h 3.5 mph /  5.6 km/h 80 % 0.00 in /  0 mm
10:30 78.2 °F /  25.7 °C 71.5 °F /  21.9 °C 29.90 in /  1012.4 hPa WNW 0.6 mph /  1 km/h 3.5 mph /  5.6 km/h 80 % 0.00 in /  0 mm
10:35 78.8 °F /  26 °C 71.0 °F /  21.7 °C 29.91 in /  1012.8 hPa North 2.3 mph /  3.7 km/h 3.5 mph /  5.6 km/h 77 % 0.00 in /  0 mm
10:40 79.3 °F /  26.3 °C 70.3 °F /  21.3 °C 29.91 in /  1012.8 hPa WSW 0.8 mph /  1.3 km/h 3.0 mph /  4.8 km/h 74 % 0.00 in /  0 mm
10:45 79.8 °F /  26.6 °C 70.4 °F /  21.3 °C 29.90 in /  1012.4 hPa SW 1.0 mph /  1.6 km/h 3.5 mph /  5.6 km/h 73 % 0.00 in /  0 mm
10:50 80.1 °F /  26.7 °C 70.7 °F /  21.5 °C 29.90 in /  1012.4 hPa SW 1.0 mph /  1.6 km/h 5.8 mph /  9.3 km/h 73 % 0.00 in /  0 mm
10:55 80.7 °F /  27.1 °C 72.0 °F /  22.2 °C 29.90 in /  1012.4 hPa WSW 2.2 mph /  3.5 km/h 3.5 mph /  5.6 km/h 75 % 0.00 in /  0 mm
11:00 81.3 °F /  27.4 °C 72.6 °F /  22.6 °C 29.91 in /  1012.8 hPa WNW 1.2 mph /  1.9 km/h 2.3 mph /  3.7 km/h 75 % 0.00 in /  0 mm
11:06 81.9 °F /  27.7 °C 72.0 °F /  22.2 °C 29.90 in /  1012.4 hPa NW 1.0 mph /  1.6 km/h 4.0 mph /  6.4 km/h 72 % 0.00 in /  0 mm
11:11 82.5 °F /  28.1 °C 73.0 °F /  22.8 °C 29.91 in /  1012.8 hPa NW 1.0 mph /  1.6 km/h 3.0 mph /  4.8 km/h 73 % 0.00 in /  0 mm
11:16 83.2 °F /  28.4 °C 72.4 °F /  22.4 °C 29.91 in /  1012.8 hPa NNW 1.0 mph /  1.6 km/h 6.0 mph /  9.7 km/h 70 % 0.00 in /  0 mm
11:21 83.9 °F /  28.8 °C 72.2 °F /  22.3 °C 29.91 in /  1012.8 hPa North 2.0 mph /  3.2 km/h 6.0 mph /  9.7 km/h 68 % 0.00 in /  0 mm
11:26 84.5 °F /  29.2 °C 71.9 °F /  22.2 °C 29.91 in /  1012.8 hPa NW 3.0 mph /  4.8 km/h 7.0 mph /  11.3 km/h 66 % 0.00 in /  0 mm
11:31 84.9 °F /  29.4 °C 71.9 °F /  22.2 °C 29.91 in /  1012.8 hPa WNW 2.0 mph /  3.2 km/h 3.0 mph /  4.8 km/h 65 % 0.00 in /  0 mm
11:36 85.4 °F /  29.7 °C 71.8 °F /  22.1 °C 29.90 in /  1012.4 hPa NW 1.0 mph /  1.6 km/h 4.0 mph /  6.4 km/h 64 % 0.00 in /  0 mm
11:41 85.9 °F /  29.9 °C 71.4 °F /  21.9 °C 29.90 in /  1012.4 hPa NE 1.4 mph /  2.3 km/h 4.6 mph /  7.4 km/h 62 % 0.00 in /  0 mm
11:46 86.3 °F /  30.2 °C 72.2 °F /  22.3 °C 29.90 in /  1012.4 hPa North 2.5 mph /  4 km/h 3.5 mph /  5.6 km/h 63 % 0.00 in /  0 mm
11:51 86.5 °F /  30.3 °C 71.9 °F /  22.2 °C 29.90 in /  1012.4 hPa WNW 2.9 mph /  4.7 km/h 4.6 mph /  7.4 km/h 62 % 0.00 in /  0 mm
11:56 86.8 °F /  30.4 °C 72.7 °F /  22.6 °C 29.90 in /  1012.4 hPa WNW 1.3 mph /  2.1 km/h 4.6 mph /  7.4 km/h 63 % 0.00 in /  0 mm
12:01 87.2 °F /  30.7 °C 72.1 °F /  22.3 °C 29.90 in /  1012.4 hPa NNW 0.7 mph /  1.1 km/h 2.3 mph /  3.7 km/h 61 % 0.00 in /  0 mm
12:06 87.5 °F /  30.8 °C 71.4 °F /  21.9 °C 29.90 in /  1012.4 hPa NW 2.0 mph /  3.2 km/h 4.0 mph /  6.4 km/h 59 % 0.00 in /  0 mm
12:07 87.6 °F /  30.9 °C 72.5 °F /  22.5 °C 29.90 in /  1012.4 hPa NW 1.6 mph /  2.6 km/h 3.5 mph /  5.6 km/h 61 % 0.00 in /  0 mm
12:12 88.0 °F /  31.1 °C 71.9 °F /  22.2 °C 29.90 in /  1012.4 hPa WNW 2.7 mph /  4.3 km/h 4.6 mph /  7.4 km/h 59 % 0.00 in /  0 mm
12:17 88.2 °F /  31.2 °C 70.5 °F /  21.4 °C 29.90 in /  1012.4 hPa NNE 2.9 mph /  4.7 km/h 4.6 mph /  7.4 km/h 56 % 0.00 in /  0 mm
12:22 88.3 °F /  31.3 °C 71.1 °F /  21.7 °C 29.90 in /  1012.4 hPa WNW 2.4 mph /  3.9 km/h 5.8 mph /  9.3 km/h 57 % 0.00 in /  0 mm
12:27 88.5 °F /  31.4 °C 70.8 °F /  21.6 °C 29.90 in /  1012.4 hPa WNW 1.0 mph /  1.6 km/h 3.0 mph /  4.8 km/h 56 % 0.00 in /  0 mm
12:32 88.7 °F /  31.5 °C 72.0 °F /  22.2 °C 29.90 in /  1012.4 hPa West 2.0 mph /  3.2 km/h 3.0 mph /  4.8 km/h 58 % 0.00 in /  0 mm
12:37 89.0 °F /  31.7 °C 71.3 °F /  21.8 °C 29.91 in /  1012.8 hPa NNE 0.8 mph /  1.3 km/h 3.5 mph /  5.6 km/h 56 % 0.00 in /  0 mm
12:42 89.3 °F /  31.8 °C 70.5 °F /  21.4 °C 29.90 in /  1012.4 hPa NW 2.0 mph /  3.2 km/h 4.6 mph /  7.4 km/h 54 % 0.00 in /  0 mm
12:47 89.5 °F /  31.9 °C 72.3 °F /  22.4 °C 29.90 in /  1012.4 hPa West 2.4 mph /  3.9 km/h 4.0 mph /  6.4 km/h 57 % 0.00 in /  0 mm
12:52 89.7 °F /  32.1 °C 70.3 °F /  21.3 °C 29.90 in /  1012.4 hPa WNW 0.7 mph /  1.1 km/h 4.6 mph /  7.4 km/h 53 % 0.00 in /  0 mm
12:57 89.8 °F /  32.1 °C 70.9 °F /  21.6 °C 29.90 in /  1012.4 hPa North 1.2 mph /  1.9 km/h 4.6 mph /  7.4 km/h 54 % 0.00 in /  0 mm
13:02 89.8 °F /  32.1 °C 69.8 °F /  21 °C 29.90 in /  1012.4 hPa NW 4.8 mph /  7.7 km/h 7.0 mph /  11.3 km/h 52 % 0.00 in /  0 mm
13:07 89.9 °F /  32.2 °C 71.0 °F /  21.7 °C 29.90 in /  1012.4 hPa WNW 2.0 mph /  3.2 km/h 3.5 mph /  5.6 km/h 54 % 0.00 in /  0 mm
13:12 89.9 °F /  32.2 °C 69.9 °F /  21.1 °C 29.90 in /  1012.4 hPa North 1.9 mph /  3.1 km/h 3.5 mph /  5.6 km/h 52 % 0.00 in /  0 mm
13:17 90.0 °F /  32.2 °C 71.7 °F /  22.1 °C 29.90 in /  1012.4 hPa West 2.6 mph /  4.2 km/h 6.0 mph /  9.7 km/h 55 % 0.00 in /  0 mm
13:22 90.1 °F /  32.3 °C 70.7 °F /  21.5 °C 29.90 in /  1012.4 hPa NW 1.6 mph /  2.6 km/h 4.6 mph /  7.4 km/h 53 % 0.00 in /  0 mm
13:27 90.0 °F /  32.2 °C 70.0 °F /  21.1 °C 29.90 in /  1012.4 hPa NE 5.3 mph /  8.5 km/h 7.0 mph /  11.3 km/h 52 % 0.00 in /  0 mm
13:32 89.6 °F /  32 °C 70.8 °F /  21.6 °C 29.90 in /  1012.4 hPa NW 1.8 mph /  2.9 km/h 5.8 mph /  9.3 km/h 54 % 0.00 in /  0 mm
13:37 89.5 °F /  31.9 °C 69.0 °F /  20.6 °C 29.90 in /  1012.4 hPa NNW 3.3 mph /  5.3 km/h 5.8 mph /  9.3 km/h 51 % 0.00 in /  0 mm
13:42 89.5 °F /  31.9 °C 70.1 °F /  21.2 °C 29.89 in /  1012.1 hPa NNE 1.9 mph /  3.1 km/h 5.0 mph /  8 km/h 53 % 0.00 in /  0 mm
13:47 89.4 °F /  31.9 °C 70.0 °F /  21.1 °C 29.89 in /  1012.1 hPa NW 1.7 mph /  2.7 km/h 4.6 mph /  7.4 km/h 53 % 0.00 in /  0 mm
13:52 89.5 °F /  31.9 °C 69.0 °F /  20.6 °C 29.89 in /  1012.1 hPa North 3.4 mph /  5.5 km/h 4.6 mph /  7.4 km/h 51 % 0.00 in /  0 mm
13:58 89.4 °F /  31.9 °C 70.0 °F /  21.1 °C 29.89 in /  1012.1 hPa North 2.2 mph /  3.5 km/h 4.6 mph /  7.4 km/h 53 % 0.00 in /  0 mm
14:03 89.0 °F /  31.7 °C 68.5 °F /  20.3 °C 29.89 in /  1012.1 hPa North 1.9 mph /  3.1 km/h 3.5 mph /  5.6 km/h 51 % 0.00 in /  0 mm
14:08 88.6 °F /  31.4 °C 68.7 °F /  20.4 °C 29.89 in /  1012.1 hPa NE 1.4 mph /  2.3 km/h 4.6 mph /  7.4 km/h 52 % 0.00 in /  0 mm
14:13 88.6 °F /  31.4 °C 68.2 °F /  20.1 °C 29.89 in /  1012.1 hPa North 3.5 mph /  5.6 km/h 5.0 mph /  8 km/h 51 % 0.00 in /  0 mm
14:18 88.7 °F /  31.5 °C 68.8 °F /  20.4 °C 29.89 in /  1012.1 hPa ENE 2.0 mph /  3.2 km/h 5.8 mph /  9.3 km/h 52 % 0.00 in /  0 mm
14:19 88.5 °F /  31.4 °C 67.5 °F /  19.7 °C 29.89 in /  1012.1 hPa North 1.4 mph /  2.3 km/h 3.5 mph /  5.6 km/h 50 % 0.00 in /  0 mm
14:24 88.4 °F /  31.3 °C 68.0 °F /  20 °C 29.90 in /  1012.4 hPa North 2.1 mph /  3.4 km/h 4.0 mph /  6.4 km/h 51 % 0.00 in /  0 mm
14:29 88.6 °F /  31.4 °C 69.8 °F /  21 °C 29.90 in /  1012.4 hPa North 1.1 mph /  1.8 km/h 4.0 mph /  6.4 km/h 54 % 0.00 in /  0 mm
14:34 88.6 °F /  31.4 °C 69.3 °F /  20.7 °C 29.89 in /  1012.1 hPa NNE 0.9 mph /  1.4 km/h 3.5 mph /  5.6 km/h 53 % 0.00 in /  0 mm
14:39 88.6 °F /  31.4 °C 69.3 °F /  20.7 °C 29.90 in /  1012.4 hPa NW 1.7 mph /  2.7 km/h 3.5 mph /  5.6 km/h 53 % 0.00 in /  0 mm
14:45 88.7 °F /  31.5 °C 69.4 °F /  20.8 °C 29.90 in /  1012.4 hPa NNE 2.6 mph /  4.2 km/h 3.5 mph /  5.6 km/h 53 % 0.00 in /  0 mm
14:50 88.7 °F /  31.5 °C 67.1 °F /  19.5 °C 29.90 in /  1012.4 hPa NE 1.5 mph /  2.4 km/h 3.5 mph /  5.6 km/h 49 % 0.00 in /  0 mm
14:55 88.7 °F /  31.5 °C 68.2 °F /  20.1 °C 29.90 in /  1012.4 hPa WNW 2.7 mph /  4.3 km/h 5.8 mph /  9.3 km/h 51 % 0.00 in /  0 mm
15:00 88.6 °F /  31.4 °C 67.6 °F /  19.8 °C 29.90 in /  1012.4 hPa NNW 1.5 mph /  2.4 km/h 2.3 mph /  3.7 km/h 50 % 0.00 in /  0 mm
15:05 88.2 °F /  31.2 °C 68.4 °F /  20.2 °C 29.90 in /  1012.4 hPa North 1.1 mph /  1.8 km/h 2.3 mph /  3.7 km/h 52 % 0.00 in /  0 mm
15:10 88.3 °F /  31.3 °C 69.0 °F /  20.6 °C 29.90 in /  1012.4 hPa NNE 2.8 mph /  4.5 km/h 3.5 mph /  5.6 km/h 53 % 0.00 in /  0 mm
15:15 88.4 °F /  31.3 °C 68.0 °F /  20 °C 29.90 in /  1012.4 hPa NNW 2.2 mph /  3.5 km/h 4.6 mph /  7.4 km/h 51 % 0.00 in /  0 mm
15:20 88.4 °F /  31.3 °C 68.5 °F /  20.3 °C 29.90 in /  1012.4 hPa NNW 2.4 mph /  3.9 km/h 3.5 mph /  5.6 km/h 52 % 0.00 in /  0 mm
15:25 88.5 °F /  31.4 °C 69.7 °F /  20.9 °C 29.90 in /  1012.4 hPa NW 1.5 mph /  2.4 km/h 3.5 mph /  5.6 km/h 54 % 0.00 in /  0 mm
15:30 88.5 °F /  31.4 °C 68.1 °F /  20.1 °C 29.90 in /  1012.4 hPa North 0.7 mph /  1.1 km/h 4.0 mph /  6.4 km/h 51 % 0.00 in /  0 mm
15:35 88.3 °F /  31.3 °C 68.4 °F /  20.2 °C 29.90 in /  1012.4 hPa NNE 2.9 mph /  4.7 km/h 4.6 mph /  7.4 km/h 52 % 0.00 in /  0 mm
15:40 88.0 °F /  31.1 °C 67.0 °F /  19.4 °C 29.90 in /  1012.4 hPa North 2.3 mph /  3.7 km/h 3.5 mph /  5.6 km/h 50 % 0.00 in /  0 mm
15:45 88.0 °F /  31.1 °C 67.0 °F /  19.4 °C 29.90 in /  1012.4 hPa WNW 1.8 mph /  2.9 km/h 3.5 mph /  5.6 km/h 50 % 0.00 in /  0 mm
15:50 88.1 °F /  31.2 °C 67.1 °F /  19.5 °C 29.90 in /  1012.4 hPa North 2.0 mph /  3.2 km/h 4.0 mph /  6.4 km/h 50 % 0.00 in /  0 mm
15:55 88.3 °F /  31.3 °C 67.3 °F /  19.6 °C 29.90 in /  1012.4 hPa North 0.5 mph /  0.8 km/h 3.5 mph /  5.6 km/h 50 % 0.00 in /  0 mm
16:00 88.4 °F /  31.3 °C 67.4 °F /  19.7 °C 29.90 in /  1012.4 hPa North 2.8 mph /  4.5 km/h 4.6 mph /  7.4 km/h 50 % 0.00 in /  0 mm
16:05 88.3 °F /  31.3 °C 66.7 °F /  19.3 °C 29.90 in /  1012.4 hPa NNW 0.6 mph /  1 km/h 2.3 mph /  3.7 km/h 49 % 0.00 in /  0 mm
16:10 88.4 °F /  31.3 °C 66.2 °F /  19 °C 29.90 in /  1012.4 hPa NNE 2.4 mph /  3.9 km/h 3.5 mph /  5.6 km/h 48 % 0.00 in /  0 mm
16:15 88.4 °F /  31.3 °C 66.8 °F /  19.3 °C 29.90 in /  1012.4 hPa NNE 2.5 mph /  4 km/h 3.0 mph /  4.8 km/h 49 % 0.00 in /  0 mm
16:20 88.1 °F /  31.2 °C 66.5 °F /  19.2 °C 29.90 in /  1012.4 hPa North 3.6 mph /  5.8 km/h 4.6 mph /  7.4 km/h 49 % 0.00 in /  0 mm
16:25 88.1 °F /  31.2 °C 66.5 °F /  19.2 °C 29.90 in /  1012.4 hPa North 1.6 mph /  2.6 km/h 3.5 mph /  5.6 km/h 49 % 0.00 in /  0 mm
16:31 88.1 °F /  31.2 °C 66.5 °F /  19.2 °C 29.90 in /  1012.4 hPa NW 1.4 mph /  2.3 km/h 2.3 mph /  3.7 km/h 49 % 0.00 in /  0 mm
16:36 88.0 °F /  31.1 °C 66.4 °F /  19.1 °C 29.90 in /  1012.4 hPa NW 1.0 mph /  1.6 km/h 3.0 mph /  4.8 km/h 49 % 0.00 in /  0 mm
16:41 87.7 °F /  30.9 °C 67.3 °F /  19.6 °C 29.90 in /  1012.4 hPa NNW 1.0 mph /  1.6 km/h 4.0 mph /  6.4 km/h 51 % 0.00 in /  0 mm
16:46 87.4 °F /  30.8 °C 66.5 °F /  19.2 °C 29.90 in /  1012.4 hPa NNE 2.0 mph /  3.2 km/h 5.0 mph /  8 km/h 50 % 0.00 in /  0 mm
16:51 87.0 °F /  30.6 °C 65.5 °F /  18.6 °C 29.90 in /  1012.4 hPa Calm   4.0 mph /  6.4 km/h 49 % 0.00 in /  0 mm
16:56 87.1 °F /  30.6 °C 66.8 °F /  19.3 °C 29.90 in /  1012.4 hPa Calm   3.0 mph /  4.8 km/h 51 % 0.00 in /  0 mm
17:01 87.1 °F /  30.6 °C 66.8 °F /  19.3 °C 29.90 in /  1012.4 hPa NNW 0.5 mph /  0.8 km/h 2.3 mph /  3.7 km/h 51 % 0.00 in /  0 mm
17:06 87.1 °F /  30.6 °C 65.6 °F /  18.7 °C 29.90 in /  1012.4 hPa Calm   1.0 mph /  1.6 km/h 49 % 0.00 in /  0 mm
17:11 86.9 °F /  30.5 °C 66.0 °F /  18.9 °C 29.90 in /  1012.4 hPa North 1.9 mph /  3.1 km/h 3.5 mph /  5.6 km/h 50 % 0.00 in /  0 mm
17:16 86.7 °F /  30.4 °C 66.4 °F /  19.1 °C 29.90 in /  1012.4 hPa North 0.2 mph /  0.3 km/h 2.3 mph /  3.7 km/h 51 % 0.00 in /  0 mm
17:21 86.6 °F /  30.3 °C 66.9 °F /  19.4 °C 29.89 in /  1012.1 hPa North 0.8 mph /  1.3 km/h 3.5 mph /  5.6 km/h 52 % 0.00 in /  0 mm
17:26 86.6 °F /  30.3 °C 66.3 °F /  19.1 °C 29.89 in /  1012.1 hPa North 0.9 mph /  1.4 km/h 2.3 mph /  3.7 km/h 51 % 0.00 in /  0 mm
17:31 86.3 °F /  30.2 °C 66.6 °F /  19.2 °C 29.90 in /  1012.4 hPa North 0.6 mph /  1 km/h 2.3 mph /  3.7 km/h 52 % 0.00 in /  0 mm
17:36 86.0 °F /  30 °C 66.3 °F /  19.1 °C 29.90 in /  1012.4 hPa Calm     52 % 0.00 in /  0 mm
17:41 85.7 °F /  29.8 °C 66.0 °F /  18.9 °C 29.90 in /  1012.4 hPa Calm   1.2 mph /  1.9 km/h 52 % 0.00 in /  0 mm
17:46 85.5 °F /  29.7 °C 66.4 °F /  19.1 °C 29.90 in /  1012.4 hPa Calm     53 % 0.00 in /  0 mm
17:51 85.2 °F /  29.6 °C 66.1 °F /  18.9 °C 29.90 in /  1012.4 hPa North 0.1 mph /  0.2 km/h 1.0 mph /  1.6 km/h 53 % 0.00 in /  0 mm
17:56 84.9 °F /  29.4 °C 65.3 °F /  18.5 °C 29.90 in /  1012.4 hPa Calm     52 % 0.00 in /  0 mm
18:01 84.7 °F /  29.3 °C 66.2 °F /  19 °C 29.90 in /  1012.4 hPa Calm     54 % 0.00 in /  0 mm
18:07 84.4 °F /  29.1 °C 66.5 °F /  19.2 °C 29.90 in /  1012.4 hPa Calm     55 % 0.00 in /  0 mm
18:12 84.2 °F /  29 °C 65.8 °F /  18.8 °C 29.90 in /  1012.4 hPa Calm     54 % 0.00 in /  0 mm
18:17 84.0 °F /  28.9 °C 65.6 °F /  18.7 °C 29.90 in /  1012.4 hPa Calm   1.2 mph /  1.9 km/h 54 % 0.00 in /  0 mm
18:22 83.9 °F /  28.8 °C 67.0 °F /  19.4 °C 29.90 in /  1012.4 hPa Calm     57 % 0.00 in /  0 mm
18:27 83.7 °F /  28.7 °C 66.3 °F /  19.1 °C 29.90 in /  1012.4 hPa Calm     56 % 0.00 in /  0 mm
18:32 83.6 °F /  28.7 °C 66.8 °F /  19.3 °C 29.90 in /  1012.4 hPa Calm     57 % 0.00 in /  0 mm
18:37 83.4 °F /  28.6 °C 66.1 °F /  18.9 °C 29.91 in /  1012.8 hPa Calm     56 % 0.00 in /  0 mm
18:42 83.3 °F /  28.5 °C 66.5 °F /  19.2 °C 29.90 in /  1012.4 hPa Calm     57 % 0.00 in /  0 mm
18:47 83.1 °F /  28.4 °C 66.8 °F /  19.3 °C 29.91 in /  1012.8 hPa Calm     58 % 0.00 in /  0 mm
18:52 82.9 °F /  28.3 °C 66.1 °F /  18.9 °C 29.91 in /  1012.8 hPa Calm     57 % 0.00 in /  0 mm
18:57 82.7 °F /  28.2 °C 67.4 °F /  19.7 °C 29.91 in /  1012.8 hPa Calm     60 % 0.00 in /  0 mm
19:02 82.5 °F /  28.1 °C 66.7 °F /  19.3 °C 29.91 in /  1012.8 hPa Calm     59 % 0.00 in /  0 mm
19:07 82.3 °F /  27.9 °C 67.0 °F /  19.4 °C 29.91 in /  1012.8 hPa Calm   1.2 mph /  1.9 km/h 60 % 0.00 in /  0 mm
19:12 82.0 °F /  27.8 °C 66.7 °F /  19.3 °C 29.91 in /  1012.8 hPa Calm     60 % 0.00 in /  0 mm
19:17 81.8 °F /  27.7 °C 67.0 °F /  19.4 °C 29.91 in /  1012.8 hPa Calm     61 % 0.00 in /  0 mm
19:22 81.5 °F /  27.5 °C 67.7 °F /  19.8 °C 29.91 in /  1012.8 hPa Calm     63 % 0.00 in /  0 mm
19:27 81.3 °F /  27.4 °C 68.4 °F /  20.2 °C 29.91 in /  1012.8 hPa Calm     65 % 0.00 in /  0 mm
19:32 80.9 °F /  27.2 °C 68.9 °F /  20.5 °C 29.91 in /  1012.8 hPa Calm     67 % 0.00 in /  0 mm
19:37 80.5 °F /  26.9 °C 68.5 °F /  20.3 °C 29.91 in /  1012.8 hPa Calm     67 % 0.00 in /  0 mm
19:43 80.1 °F /  26.7 °C 68.6 °F /  20.3 °C 29.92 in /  1013.1 hPa Calm     68 % 0.00 in /  0 mm
19:48 79.8 °F /  26.6 °C 69.1 °F /  20.6 °C 29.92 in /  1013.1 hPa Calm     70 % 0.00 in /  0 mm
19:53 79.4 °F /  26.3 °C 69.2 °F /  20.7 °C 29.92 in /  1013.1 hPa Calm   1.2 mph /  1.9 km/h 71 % 0.00 in /  0 mm
19:58 78.8 °F /  26 °C 68.6 °F /  20.3 °C 29.92 in /  1013.1 hPa Calm     71 % 0.00 in /  0 mm
20:03 78.3 °F /  25.7 °C 68.5 °F /  20.3 °C 29.92 in /  1013.1 hPa Calm     72 % 0.00 in /  0 mm
20:08 77.9 °F /  25.5 °C 68.1 °F /  20.1 °C 29.92 in /  1013.1 hPa Calm     72 % 0.00 in /  0 mm
20:13 77.6 °F /  25.3 °C 67.9 °F /  19.9 °C 29.92 in /  1013.1 hPa Calm     72 % 0.00 in /  0 mm
20:18 77.2 °F /  25.1 °C 67.9 °F /  19.9 °C 29.93 in /  1013.4 hPa North 0.1 mph /  0.2 km/h 1.2 mph /  1.9 km/h 73 % 0.00 in /  0 mm
20:23 76.8 °F /  24.9 °C 67.5 °F /  19.7 °C 29.93 in /  1013.4 hPa Calm     73 % 0.00 in /  0 mm
20:28 76.5 °F /  24.7 °C 67.6 °F /  19.8 °C 29.93 in /  1013.4 hPa Calm     74 % 0.00 in /  0 mm
20:33 76.1 °F /  24.5 °C 67.2 °F /  19.6 °C 29.92 in /  1013.1 hPa Calm     74 % 0.00 in /  0 mm
20:35 76.0 °F /  24.4 °C 67.1 °F /  19.5 °C 29.92 in /  1013.1 hPa Calm     74 % 0.00 in /  0 mm
20:40 75.7 °F /  24.3 °C 66.8 °F /  19.3 °C 29.93 in /  1013.4 hPa Calm   1.2 mph /  1.9 km/h 74 % 0.00 in /  0 mm
20:45 75.5 °F /  24.2 °C 66.6 °F /  19.2 °C 29.93 in /  1013.4 hPa Calm     74 % 0.00 in /  0 mm
20:50 75.3 °F /  24.1 °C 66.8 °F /  19.3 °C 29.93 in /  1013.4 hPa Calm     75 % 0.00 in /  0 mm
20:55 75.1 °F /  23.9 °C 66.6 °F /  19.2 °C 29.93 in /  1013.4 hPa Calm     75 % 0.00 in /  0 mm
21:01 74.8 °F /  23.8 °C 66.7 °F /  19.3 °C 29.93 in /  1013.4 hPa Calm     76 % 0.00 in /  0 mm
21:06 74.6 °F /  23.7 °C 67.3 °F /  19.6 °C 29.93 in /  1013.4 hPa Calm     78 % 0.00 in /  0 mm
21:11 74.3 °F /  23.5 °C 67.0 °F /  19.4 °C 29.93 in /  1013.4 hPa Calm     78 % 0.00 in /  0 mm
21:16 74.1 °F /  23.4 °C 67.2 °F /  19.6 °C 29.94 in /  1013.8 hPa Calm     79 % 0.00 in /  0 mm
21:21 73.9 °F /  23.3 °C 67.0 °F /  19.4 °C 29.94 in /  1013.8 hPa Calm     79 % 0.00 in /  0 mm
21:26 73.7 °F /  23.2 °C 67.1 °F /  19.5 °C 29.94 in /  1013.8 hPa Calm     80 % 0.00 in /  0 mm
21:31 73.4 °F /  23 °C 66.5 °F /  19.2 °C 29.94 in /  1013.8 hPa Calm     79 % 0.00 in /  0 mm
21:36 73.2 °F /  22.9 °C 66.7 °F /  19.3 °C 29.94 in /  1013.8 hPa Calm     80 % 0.00 in /  0 mm
21:41 73.1 °F /  22.8 °C 66.9 °F /  19.4 °C 29.94 in /  1013.8 hPa Calm     81 % 0.00 in /  0 mm
21:46 72.9 °F /  22.7 °C 66.7 °F /  19.3 °C 29.94 in /  1013.8 hPa Calm     81 % 0.00 in /  0 mm
21:51 72.7 °F /  22.6 °C 66.5 °F /  19.2 °C 29.94 in /  1013.8 hPa Calm     81 % 0.00 in /  0 mm
21:56 72.6 °F /  22.6 °C 66.4 °F /  19.1 °C 29.94 in /  1013.8 hPa Calm     81 % 0.00 in /  0 mm
22:01 72.4 °F /  22.4 °C 66.6 °F /  19.2 °C 29.94 in /  1013.8 hPa Calm     82 % 0.00 in /  0 mm
22:06 72.3 °F /  22.4 °C 66.5 °F /  19.2 °C 29.94 in /  1013.8 hPa Calm     82 % 0.00 in /  0 mm
22:11 72.1 °F /  22.3 °C 66.3 °F /  19.1 °C 29.94 in /  1013.8 hPa Calm     82 % 0.00 in /  0 mm
22:16 72.0 °F /  22.2 °C 66.2 °F /  19 °C 29.94 in /  1013.8 hPa Calm     82 % 0.00 in /  0 mm
22:22 71.9 °F /  22.2 °C 66.1 °F /  18.9 °C 29.95 in /  1014.1 hPa Calm     82 % 0.00 in /  0 mm
22:27 71.7 °F /  22.1 °C 65.6 °F /  18.7 °C 29.95 in /  1014.1 hPa Calm     81 % 0.00 in /  0 mm
22:32 71.6 °F /  22 °C 65.5 °F /  18.6 °C 29.95 in /  1014.1 hPa Calm     81 % 0.00 in /  0 mm
22:37 71.5 °F /  21.9 °C 65.7 °F /  18.7 °C 29.95 in /  1014.1 hPa Calm     82 % 0.00 in /  0 mm
22:42 71.4 °F /  21.9 °C 65.6 °F /  18.7 °C 29.95 in /  1014.1 hPa North 0.2 mph /  0.3 km/h 1.2 mph /  1.9 km/h 82 % 0.00 in /  0 mm
22:47 71.3 °F /  21.8 °C 65.5 °F /  18.6 °C 29.95 in /  1014.1 hPa North 0.2 mph /  0.3 km/h 1.2 mph /  1.9 km/h 82 % 0.00 in /  0 mm
22:52 71.2 °F /  21.8 °C 65.8 °F /  18.8 °C 29.95 in /  1014.1 hPa Calm     83 % 0.00 in /  0 mm
22:57 71.1 °F /  21.7 °C 65.7 °F /  18.7 °C 29.95 in /  1014.1 hPa Calm     83 % 0.00 in /  0 mm
23:02 71.0 °F /  21.7 °C 65.6 °F /  18.7 °C 29.95 in /  1014.1 hPa Calm     83 % 0.00 in /  0 mm
23:07 71.0 °F /  21.7 °C 65.6 °F /  18.7 °C 29.95 in /  1014.1 hPa Calm     83 % 0.00 in /  0 mm
23:12 70.9 °F /  21.6 °C 65.8 °F /  18.8 °C 29.95 in /  1014.1 hPa Calm     84 % 0.00 in /  0 mm
23:17 70.9 °F /  21.6 °C 66.2 °F /  19 °C 29.95 in /  1014.1 hPa Calm     85 % 0.00 in /  0 mm
23:22 70.8 °F /  21.6 °C 66.1 °F /  18.9 °C 29.95 in /  1014.1 hPa Calm     85 % 0.00 in /  0 mm
23:27 70.8 °F /  21.6 °C 66.1 °F /  18.9 °C 29.95 in /  1014.1 hPa Calm     85 % 0.00 in /  0 mm
23:32 70.8 °F /  21.6 °C 66.1 °F /  18.9 °C 29.96 in /  1014.4 hPa Calm     85 % 0.00 in /  0 mm
23:34 70.7 °F /  21.5 °C 66.0 °F /  18.9 °C 29.96 in /  1014.4 hPa Calm     85 % 0.00 in /  0 mm
23:39 70.7 °F /  21.5 °C 66.3 °F /  19.1 °C 29.96 in /  1014.4 hPa Calm     86 % 0.00 in /  0 mm
23:44 70.6 °F /  21.4 °C 66.2 °F /  19 °C 29.96 in /  1014.4 hPa Calm     86 % 0.00 in /  0 mm
23:49 70.6 °F /  21.4 °C 66.2 °F /  19 °C 29.97 in /  1014.8 hPa Calm     86 % 0.00 in /  0 mm
23:54 70.6 °F /  21.4 °C 66.2 °F /  19 °C 29.97 in /  1014.8 hPa Calm     86 % 0.00 in /  0 mm
23:59 70.5 °F /  21.4 °C 66.4 °F /  19.1 °C 29.97 in /  1014.8 hPa Calm   1.2 mph /  1.9 km/h 87 % 0.00 in /  0 mm
Crab Meadow Weather
Compliments of Weather Underground - 3 mb

Script developed by  Jim McMurry - jmcmurry@mwt.net Adapted for the template by  Wim van der Kuil - Leuven-Template.eu

Recycling: A used aluminum can is recycled and back on the grocery shelf as a new can, in as little as 60 days.